createdAt,value
2019-03-17T00:00:35.952Z,7.84
2019-03-17T00:01:56.836Z,7.85
2019-03-17T00:03:07.385Z,7.82
2019-03-17T00:04:17.563Z,7.87
2019-03-17T00:05:39.220Z,7.91
2019-03-17T00:06:49.387Z,7.8
2019-03-17T00:07:59.545Z,7.87
2019-03-17T00:09:09.378Z,7.82
2019-03-17T00:10:19.338Z,7.84
2019-03-17T00:11:29.476Z,7.82
2019-03-17T00:12:39.610Z,7.84
2019-03-17T00:13:49.747Z,7.74
2019-03-17T00:15:09.788Z,7.73
2019-03-17T00:16:19.901Z,7.85
2019-03-17T00:17:30.180Z,7.82
2019-03-17T00:18:40.302Z,7.76
2019-03-17T00:19:50.087Z,7.76
2019-03-17T00:21:00.217Z,7.82
2019-03-17T00:22:10.334Z,7.76
2019-03-17T00:23:20.464Z,7.74
2019-03-17T00:24:30.600Z,7.76
2019-03-17T00:25:40.727Z,7.8
2019-03-17T00:26:50.856Z,7.79
2019-03-17T00:28:00.981Z,7.8
2019-03-17T00:29:11.102Z,7.82
2019-03-17T00:30:21.215Z,7.74
2019-03-17T00:31:31.342Z,7.79
2019-03-17T00:32:41.469Z,7.77
2019-03-17T00:33:51.582Z,7.7
2019-03-17T00:35:01.711Z,7.77
2019-03-17T00:36:11.859Z,7.77
2019-03-17T00:37:21.966Z,7.67
2019-03-17T00:38:32.086Z,7.77
2019-03-17T00:39:42.212Z,7.74
2019-03-17T00:40:54.409Z,7.77
2019-03-17T00:42:04.518Z,7.72
2019-03-17T00:43:14.628Z,7.67
2019-03-17T00:44:24.734Z,7.74
2019-03-17T00:45:34.860Z,7.69
2019-03-17T00:46:44.983Z,7.74
2019-03-17T00:47:55.092Z,7.66
2019-03-17T00:49:05.237Z,7.59
2019-03-17T00:50:15.376Z,7.62
2019-03-17T00:51:25.428Z,7.67
2019-03-17T00:52:35.534Z,7.66
2019-03-17T00:53:45.651Z,7.66
2019-03-17T00:54:55.768Z,7.64
2019-03-17T00:56:05.876Z,7.64
2019-03-17T00:57:16.019Z,7.56
2019-03-17T00:58:26.128Z,7.62
2019-03-17T00:59:36.246Z,7.58
2019-03-17T01:00:46.338Z,7.47
2019-03-17T01:01:56.498Z,7.52
2019-03-17T01:03:06.607Z,7.47
2019-03-17T01:04:16.725Z,7.48
2019-03-17T01:05:26.840Z,7.48
2019-03-17T01:06:38.977Z,7.4
2019-03-17T01:07:49.130Z,7.34
2019-03-17T01:08:59.267Z,7.37
2019-03-17T01:10:09.402Z,7.37
2019-03-17T01:11:19.548Z,7.41
2019-03-17T01:12:29.394Z,7.39
2019-03-17T01:13:39.513Z,7.34
2019-03-17T01:14:49.371Z,7.29
2019-03-17T01:15:59.126Z,7.33
2019-03-17T01:17:09.254Z,7.26
2019-03-17T01:18:19.122Z,7.29
2019-03-17T01:19:28.981Z,7.26
2019-03-17T01:20:39.093Z,7.31
2019-03-17T01:21:49.214Z,7.36
2019-03-17T01:22:59.307Z,7.36
2019-03-17T01:24:10.330Z,7.26
2019-03-17T01:25:20.613Z,7.37
2019-03-17T01:26:30.721Z,7.28
2019-03-17T01:27:40.849Z,7.21
2019-03-17T01:28:50.973Z,7.28
2019-03-17T01:30:02.767Z,7.24
2019-03-17T01:31:12.903Z,7.26
2019-03-17T01:32:23.009Z,7.26
2019-03-17T01:33:33.100Z,7.29
2019-03-17T01:34:43.222Z,7.21
2019-03-17T01:35:53.323Z,7.26
2019-03-17T01:37:03.437Z,7.29
2019-03-17T01:38:13.548Z,7.17
2019-03-17T01:39:23.661Z,7.24
2019-03-17T01:40:33.794Z,7.17
2019-03-17T01:41:43.992Z,7.14
2019-03-17T01:42:54.098Z,7.13
2019-03-17T01:44:04.225Z,7.2
2019-03-17T01:45:14.338Z,7.17
2019-03-17T01:46:25.605Z,7.15
2019-03-17T01:47:35.750Z,7.08
2019-03-17T01:48:45.866Z,7.08
2019-03-17T01:49:55.987Z,7.08
2019-03-17T01:51:06.085Z,7.14
2019-03-17T01:52:16.200Z,7.15
2019-03-17T01:53:26.312Z,7.13
2019-03-17T01:54:36.423Z,7.15
2019-03-17T01:55:46.282Z,7.11
2019-03-17T01:56:56.406Z,7.1
2019-03-17T01:58:06.533Z,7.02
2019-03-17T01:59:16.660Z,7.11
2019-03-17T02:00:26.532Z,7.06
2019-03-17T02:01:36.637Z,7.02
2019-03-17T02:02:46.750Z,7.05
2019-03-17T02:03:56.857Z,7.05
2019-03-17T02:05:06.969Z,7.03
2019-03-17T02:06:28.942Z,7.05
2019-03-17T02:07:39.039Z,7.05
2019-03-17T02:08:49.145Z,6.97
2019-03-17T02:09:59.255Z,7.08
2019-03-17T02:11:09.418Z,6.97
2019-03-17T02:12:19.536Z,7.02
2019-03-17T02:13:29.040Z,6.99
2019-03-17T02:14:39.153Z,6.99
2019-03-17T02:15:49.258Z,6.96
2019-03-17T02:16:59.359Z,7
2019-03-17T02:18:09.499Z,7
2019-03-17T02:19:19.616Z,7
2019-03-17T02:20:29.715Z,7.03
2019-03-17T02:21:39.831Z,7.06
2019-03-17T02:22:49.966Z,7.03
2019-03-17T02:23:59.817Z,6.97
2019-03-17T02:25:09.941Z,7.06
2019-03-17T02:26:20.052Z,7
2019-03-17T02:27:30.170Z,7.02
2019-03-17T02:28:40.335Z,7
2019-03-17T02:29:50.554Z,7.02
2019-03-17T02:31:00.681Z,6.93
2019-03-17T02:32:10.557Z,6.85
2019-03-17T02:33:20.420Z,6.84
2019-03-17T02:34:30.557Z,6.93
2019-03-17T02:35:44.647Z,6.93
2019-03-17T02:36:54.752Z,6.93
2019-03-17T02:38:04.869Z,6.93
2019-03-17T02:39:14.968Z,6.85
2019-03-17T02:40:25.094Z,6.87
2019-03-17T02:41:35.210Z,6.81
2019-03-17T02:42:45.368Z,6.74
2019-03-17T02:43:55.529Z,6.81
2019-03-17T02:45:05.655Z,6.77
2019-03-17T02:46:15.772Z,6.84
2019-03-17T02:47:25.895Z,6.75
2019-03-17T02:48:36.003Z,6.72
2019-03-17T02:49:46.137Z,6.78
2019-03-17T02:50:56.256Z,6.79
2019-03-17T02:52:06.365Z,6.71
2019-03-17T02:53:16.475Z,6.66
2019-03-17T02:54:26.659Z,6.67
2019-03-17T02:55:36.566Z,6.62
2019-03-17T02:56:46.682Z,6.62
2019-03-17T02:57:56.791Z,6.6
2019-03-17T02:59:06.964Z,6.56
2019-03-17T03:00:20.936Z,6.66
2019-03-17T03:01:31.054Z,6.6
2019-03-17T03:02:41.221Z,6.59
2019-03-17T03:03:51.353Z,6.63
2019-03-17T03:05:01.495Z,6.52
2019-03-17T03:06:11.622Z,6.63
2019-03-17T03:07:21.478Z,6.66
2019-03-17T03:08:31.579Z,6.6
2019-03-17T03:09:41.710Z,6.67
2019-03-17T03:10:51.993Z,6.75
2019-03-17T03:12:02.199Z,6.71
2019-03-17T03:13:12.329Z,6.74
2019-03-17T03:14:22.474Z,6.81
2019-03-17T03:15:32.590Z,6.78
2019-03-17T03:16:42.726Z,6.81
2019-03-17T03:17:52.947Z,6.95
2019-03-17T03:19:03.063Z,6.97
2019-03-17T03:20:13.210Z,6.93
2019-03-17T03:21:23.444Z,6.96
2019-03-17T03:22:33.567Z,6.99
2019-03-17T03:23:43.688Z,6.99
2019-03-17T03:24:53.796Z,6.93
2019-03-17T03:26:03.800Z,7.03
2019-03-17T03:27:13.915Z,7
2019-03-17T03:28:24.042Z,7.02
2019-03-17T03:29:34.200Z,6.97
2019-03-17T03:30:44.357Z,6.99
2019-03-17T03:31:54.554Z,6.97
2019-03-17T03:33:04.707Z,7
2019-03-17T03:34:14.625Z,7.06
2019-03-17T03:35:24.755Z,7.05
2019-03-17T03:36:34.877Z,7.05
2019-03-17T03:37:45.007Z,6.99
2019-03-17T03:38:54.870Z,7.11
2019-03-17T03:40:05.027Z,7.1
2019-03-17T03:41:15.132Z,6.95
2019-03-17T03:42:25.363Z,6.96
2019-03-17T03:43:35.490Z,6.96
2019-03-17T03:44:45.712Z,6.79
2019-03-17T03:45:55.916Z,6.79
2019-03-17T03:47:06.033Z,6.81
2019-03-17T03:48:16.129Z,6.66
2019-03-17T03:49:26.252Z,6.67
2019-03-17T03:50:36.428Z,6.57
2019-03-17T03:51:46.559Z,6.6
2019-03-17T03:52:56.751Z,6.63
2019-03-17T03:54:06.892Z,6.53
2019-03-17T03:55:17.185Z,6.53
2019-03-17T03:56:27.319Z,6.52
2019-03-17T03:57:37.473Z,6.52
2019-03-17T03:58:47.625Z,6.6
2019-03-17T03:59:57.770Z,6.54
2019-03-17T04:01:08.239Z,6.52
2019-03-17T04:02:18.404Z,6.56
2019-03-17T04:03:28.566Z,6.52
2019-03-17T04:04:38.699Z,6.63
2019-03-17T04:05:48.835Z,6.63
2019-03-17T04:06:58.998Z,6.59
2019-03-17T04:08:09.128Z,6.56
2019-03-17T04:09:19.262Z,6.6
2019-03-17T04:10:29.392Z,6.6
2019-03-17T04:11:39.521Z,6.69
2019-03-17T04:12:49.670Z,6.64
2019-03-17T04:13:59.825Z,6.72
2019-03-17T04:15:09.959Z,6.79
2019-03-17T04:16:20.075Z,6.77
2019-03-17T04:17:30.195Z,6.75
2019-03-17T04:18:40.330Z,6.75
2019-03-17T04:19:50.452Z,6.79
2019-03-17T04:21:00.576Z,6.77
2019-03-17T04:22:10.475Z,6.81
2019-03-17T04:23:20.378Z,6.75
2019-03-17T04:24:30.502Z,6.74
2019-03-17T04:25:40.634Z,6.74
2019-03-17T04:26:50.760Z,6.75
2019-03-17T04:28:00.645Z,6.66
2019-03-17T04:29:10.777Z,6.59
2019-03-17T04:30:20.986Z,6.62
2019-03-17T04:31:31.214Z,6.64
2019-03-17T04:32:41.348Z,6.63
2019-03-17T04:33:51.544Z,6.59
2019-03-17T04:35:01.655Z,6.63
2019-03-17T04:36:11.769Z,6.59
2019-03-17T04:37:21.882Z,6.6
2019-03-17T04:38:32.007Z,6.6
2019-03-17T04:39:42.114Z,6.53
2019-03-17T04:40:52.232Z,6.54
2019-03-17T04:42:02.419Z,6.59
2019-03-17T04:43:12.522Z,6.62
2019-03-17T04:44:26.081Z,6.59
2019-03-17T04:45:36.184Z,6.63
2019-03-17T04:46:46.295Z,6.48
2019-03-17T04:47:56.412Z,6.56
2019-03-17T04:49:06.614Z,6.48
2019-03-17T04:50:16.731Z,6.52
2019-03-17T04:51:26.836Z,6.59
2019-03-17T04:52:36.937Z,6.54
2019-03-17T04:53:47.043Z,6.63
2019-03-17T04:54:57.156Z,6.54
2019-03-17T04:56:07.283Z,6.54
2019-03-17T04:57:17.399Z,6.49
2019-03-17T04:58:27.497Z,6.53
2019-03-17T04:59:37.600Z,6.56
2019-03-17T05:00:47.703Z,6.56
2019-03-17T05:01:57.832Z,6.54
2019-03-17T05:03:07.717Z,6.63
2019-03-17T05:04:17.822Z,6.56
2019-03-17T05:05:27.948Z,6.6
2019-03-17T05:06:38.042Z,6.54
2019-03-17T05:08:00.142Z,6.6
2019-03-17T05:09:10.245Z,6.66
2019-03-17T05:10:22.727Z,6.59
2019-03-17T05:11:33.111Z,6.57
2019-03-17T05:12:43.232Z,6.59
2019-03-17T05:13:53.432Z,6.56
2019-03-17T05:15:03.552Z,6.54
2019-03-17T05:16:13.657Z,6.57
2019-03-17T05:17:23.775Z,6.63
2019-03-17T05:18:33.887Z,6.56
2019-03-17T05:19:43.989Z,6.56
2019-03-17T05:20:54.090Z,6.56
2019-03-17T05:22:04.193Z,6.6
2019-03-17T05:23:14.033Z,6.64
2019-03-17T05:24:23.887Z,6.56
2019-03-17T05:25:33.733Z,6.57
2019-03-17T05:26:43.926Z,6.56
2019-03-17T05:27:54.034Z,6.53
2019-03-17T05:29:04.140Z,6.57
2019-03-17T05:30:14.245Z,6.63
2019-03-17T05:31:24.342Z,6.53
2019-03-17T05:32:34.455Z,6.64
2019-03-17T05:33:44.572Z,6.52
2019-03-17T05:34:54.673Z,6.63
2019-03-17T05:36:04.791Z,6.49
2019-03-17T05:37:14.901Z,6.54
2019-03-17T05:38:25.015Z,6.63
2019-03-17T05:39:35.114Z,6.54
2019-03-17T05:40:45.316Z,6.57
2019-03-17T05:41:55.429Z,6.56
2019-03-17T05:43:05.537Z,6.66
2019-03-17T05:44:15.653Z,6.54
2019-03-17T05:45:25.545Z,6.6
2019-03-17T05:46:35.658Z,6.6
2019-03-17T05:47:45.847Z,6.6
2019-03-17T05:48:55.944Z,6.63
2019-03-17T05:50:05.831Z,6.64
2019-03-17T05:51:15.931Z,6.66
2019-03-17T05:52:26.030Z,6.67
2019-03-17T05:53:36.126Z,6.63
2019-03-17T05:54:48.175Z,6.72
2019-03-17T05:55:58.281Z,6.78
2019-03-17T05:57:08.397Z,6.79
2019-03-17T05:58:18.499Z,6.75
2019-03-17T05:59:28.608Z,6.74
2019-03-17T06:00:38.808Z,6.75
2019-03-17T06:01:48.933Z,6.77
2019-03-17T06:02:59.052Z,6.72
2019-03-17T06:04:08.895Z,6.85
2019-03-17T06:05:18.744Z,6.77
2019-03-17T06:06:28.618Z,6.79
2019-03-17T06:07:38.753Z,6.82
2019-03-17T06:08:48.855Z,6.77
2019-03-17T06:09:58.988Z,6.79
2019-03-17T06:11:09.122Z,6.84
2019-03-17T06:12:19.238Z,6.87
2019-03-17T06:13:29.335Z,6.93
2019-03-17T06:14:39.439Z,6.97
2019-03-17T06:15:49.557Z,6.93
2019-03-17T06:16:59.689Z,6.92
2019-03-17T06:18:09.884Z,6.93
2019-03-17T06:19:19.825Z,6.96
2019-03-17T06:20:29.940Z,6.99
2019-03-17T06:21:41.016Z,6.99
2019-03-17T06:22:51.113Z,6.99
2019-03-17T06:24:01.222Z,7.02
2019-03-17T06:25:11.363Z,7.03
2019-03-17T06:26:21.525Z,7
2019-03-17T06:27:31.646Z,7.02
2019-03-17T06:28:41.749Z,6.99
2019-03-17T06:29:51.881Z,7
2019-03-17T06:31:01.980Z,7.05
2019-03-17T06:32:12.128Z,7.02
2019-03-17T06:33:22.271Z,7.06
2019-03-17T06:34:32.475Z,7.11
2019-03-17T06:35:42.580Z,7.08
2019-03-17T06:36:52.698Z,7.05
2019-03-17T06:38:02.807Z,7.17
2019-03-17T06:39:12.913Z,7.1
2019-03-17T06:40:23.087Z,7.06
2019-03-17T06:41:33.187Z,7.17
2019-03-17T06:42:43.323Z,7.11
2019-03-17T06:43:53.433Z,7.13
2019-03-17T06:45:03.538Z,7.18
2019-03-17T06:46:13.398Z,7.17
2019-03-17T06:47:23.556Z,7.21
2019-03-17T06:48:33.400Z,7.21
2019-03-17T06:49:43.508Z,7.06
2019-03-17T06:50:53.613Z,7.26
2019-03-17T06:52:03.712Z,7.14
2019-03-17T06:53:13.582Z,7.1
2019-03-17T06:54:23.786Z,7.2
2019-03-17T06:55:33.913Z,7.21
2019-03-17T06:56:44.032Z,7.15
2019-03-17T06:57:54.156Z,7.21
2019-03-17T06:59:04.323Z,7.14
2019-03-17T07:00:14.433Z,7.18
2019-03-17T07:01:24.572Z,7.21
2019-03-17T07:02:34.677Z,7.24
2019-03-17T07:03:44.805Z,7.31
2019-03-17T07:04:56.556Z,7.29
2019-03-17T07:06:06.702Z,7.4
2019-03-17T07:07:16.807Z,7.4
2019-03-17T07:08:26.909Z,7.43
2019-03-17T07:09:37.262Z,7.48
2019-03-17T07:10:47.393Z,7.54
2019-03-17T07:11:57.511Z,7.58
2019-03-17T07:13:07.646Z,7.62
2019-03-17T07:14:17.755Z,7.67
2019-03-17T07:15:27.887Z,7.76
2019-03-17T07:16:38.005Z,7.79
2019-03-17T07:17:48.134Z,7.85
2019-03-17T07:18:58.255Z,7.85
2019-03-17T07:20:08.381Z,7.88
2019-03-17T07:21:18.518Z,8.06
2019-03-17T07:22:28.632Z,8.12
2019-03-17T07:23:39.344Z,8.16
2019-03-17T07:24:49.457Z,8.13
2019-03-17T07:25:59.559Z,8.27
2019-03-17T07:27:09.688Z,8.24
2019-03-17T07:28:19.872Z,8.32
2019-03-17T07:29:29.985Z,8.35
2019-03-17T07:30:40.109Z,8.34
2019-03-17T07:31:50.332Z,8.43
2019-03-17T07:33:00.461Z,8.39
2019-03-17T07:34:10.572Z,8.45
2019-03-17T07:35:20.695Z,8.55
2019-03-17T07:36:30.829Z,8.63
2019-03-17T07:37:41.013Z,8.66
2019-03-17T07:39:15.898Z,8.7
2019-03-17T07:40:26.018Z,8.74
2019-03-17T07:41:36.158Z,8.79
2019-03-17T07:42:46.029Z,8.86
2019-03-17T07:43:56.139Z,8.87
2019-03-17T07:45:06.256Z,8.95
2019-03-17T07:46:16.357Z,8.98
2019-03-17T07:47:26.491Z,9.16
2019-03-17T07:48:36.615Z,9.3
2019-03-17T07:49:46.744Z,9.38
2019-03-17T07:50:56.622Z,9.37
2019-03-17T07:52:06.733Z,9.52
2019-03-17T07:53:16.875Z,9.63
2019-03-17T07:54:26.996Z,9.75
2019-03-17T07:55:37.094Z,9.88
2019-03-17T07:56:47.264Z,9.93
2019-03-17T07:57:57.383Z,10.17
2019-03-17T07:59:07.490Z,10.32
2019-03-17T08:00:17.632Z,10.34
2019-03-17T08:01:39.527Z,10.47
2019-03-17T08:02:49.652Z,10.69
2019-03-17T08:03:59.802Z,11.42
2019-03-17T08:05:09.919Z,12.24
2019-03-17T08:06:20.024Z,13.09
2019-03-17T08:07:30.136Z,13.79
2019-03-17T08:08:40.523Z,14.4
2019-03-17T08:09:50.205Z,14.74
2019-03-17T08:11:00.341Z,15.11
2019-03-17T08:12:10.555Z,15.43
2019-03-17T08:13:20.773Z,15.94
2019-03-17T08:14:30.643Z,16.35
2019-03-17T08:15:40.799Z,16.76
2019-03-17T08:16:50.958Z,16.99
2019-03-17T08:18:01.069Z,17.19
2019-03-17T08:19:11.178Z,17.14
2019-03-17T08:20:21.297Z,17.24
2019-03-17T08:21:31.420Z,17.02
2019-03-17T08:22:41.562Z,16.89
2019-03-17T08:23:51.736Z,17.08
2019-03-17T08:25:01.883Z,17.3
2019-03-17T08:26:12.004Z,17.38
2019-03-17T08:27:22.142Z,17.55
2019-03-17T08:28:32.275Z,17.55
2019-03-17T08:29:42.389Z,17.02
2019-03-17T08:30:58.154Z,16.43
2019-03-17T08:32:08.289Z,15.75
2019-03-17T08:33:18.418Z,15.06
2019-03-17T08:34:28.317Z,14.52
2019-03-17T08:35:38.470Z,13.96
2019-03-17T08:36:48.590Z,13.41
2019-03-17T08:37:58.718Z,12.9
2019-03-17T08:39:08.834Z,12.39
2019-03-17T08:40:18.752Z,11.97
2019-03-17T08:41:28.889Z,11.65
2019-03-17T08:42:39.029Z,11.48
2019-03-17T08:43:58.855Z,11.09
2019-03-17T08:45:08.996Z,10.91
2019-03-17T08:46:19.136Z,10.69
2019-03-17T08:47:29.310Z,10.54
2019-03-17T08:48:39.450Z,10.47
2019-03-17T08:49:49.566Z,10.33
2019-03-17T08:50:59.688Z,10.27
2019-03-17T08:52:09.838Z,10.21
2019-03-17T08:53:19.730Z,10.17
2019-03-17T08:54:29.862Z,10.13
2019-03-17T08:55:39.991Z,10.15
2019-03-17T08:56:51.120Z,10.02
2019-03-17T08:58:01.269Z,10.05
2019-03-17T08:59:11.419Z,10.02
2019-03-17T09:00:21.365Z,9.98
2019-03-17T09:01:31.504Z,9.99
2019-03-17T09:02:41.620Z,9.88
2019-03-17T09:03:51.739Z,9.85
2019-03-17T09:05:01.879Z,9.83
2019-03-17T09:06:12.023Z,9.92
2019-03-17T09:07:22.162Z,9.91
2019-03-17T09:08:40.042Z,9.88
2019-03-17T09:09:50.174Z,9.93
2019-03-17T09:11:00.291Z,9.85
2019-03-17T09:12:10.202Z,9.84
2019-03-17T09:13:20.313Z,9.92
2019-03-17T09:14:30.461Z,9.96
2019-03-17T09:15:40.071Z,9.88
2019-03-17T09:16:50.255Z,9.91
2019-03-17T09:18:00.416Z,9.92
2019-03-17T09:19:10.540Z,9.84
2019-03-17T09:20:20.681Z,9.84
2019-03-17T09:21:30.847Z,9.8
2019-03-17T09:22:41.133Z,9.83
2019-03-17T09:23:51.314Z,9.78
2019-03-17T09:25:01.440Z,9.78
2019-03-17T09:26:11.553Z,9.73
2019-03-17T09:27:21.689Z,9.71
2019-03-17T09:28:31.847Z,9.74
2019-03-17T09:29:41.982Z,9.74
2019-03-17T09:30:52.111Z,9.75
2019-03-17T09:32:02.277Z,9.66
2019-03-17T09:33:12.437Z,9.66
2019-03-17T09:34:22.560Z,9.73
2019-03-17T09:35:32.748Z,9.62
2019-03-17T09:36:42.912Z,9.62
2019-03-17T09:37:53.162Z,9.65
2019-03-17T09:39:03.295Z,9.6
2019-03-17T09:40:13.443Z,9.7
2019-03-17T09:41:23.646Z,9.6
2019-03-17T09:42:33.788Z,9.6
2019-03-17T09:43:43.671Z,9.56
2019-03-17T09:44:53.799Z,9.63
2019-03-17T09:46:03.948Z,9.71
2019-03-17T09:47:14.085Z,9.56
2019-03-17T09:48:24.230Z,9.65
2019-03-17T09:49:34.376Z,9.5
2019-03-17T09:50:44.519Z,9.52
2019-03-17T09:51:54.674Z,9.5
2019-03-17T09:53:04.824Z,9.53
2019-03-17T09:54:14.948Z,9.55
2019-03-17T09:55:25.185Z,9.5
2019-03-17T09:56:35.321Z,9.55
2019-03-17T09:57:45.493Z,9.53
2019-03-17T09:58:55.631Z,9.5
2019-03-17T10:00:05.758Z,9.41
2019-03-17T10:01:15.899Z,9.53
2019-03-17T10:02:26.048Z,9.4
2019-03-17T10:03:36.209Z,9.44
2019-03-17T10:04:46.356Z,9.45
2019-03-17T10:05:56.514Z,9.38
2019-03-17T10:07:06.649Z,9.45
2019-03-17T10:08:16.803Z,9.37
2019-03-17T10:09:26.943Z,9.52
2019-03-17T10:10:37.107Z,9.35
2019-03-17T10:11:47.252Z,9.37
2019-03-17T10:12:57.412Z,9.42
2019-03-17T10:14:08.531Z,9.34
2019-03-17T10:15:18.777Z,9.41
2019-03-17T10:16:28.914Z,9.42
2019-03-17T10:17:39.054Z,9.44
2019-03-17T10:18:49.180Z,9.4
2019-03-17T10:19:59.094Z,9.37
2019-03-17T10:21:09.236Z,9.42
2019-03-17T10:22:19.363Z,9.42
2019-03-17T10:23:29.491Z,9.55
2019-03-17T10:24:39.640Z,9.47
2019-03-17T10:25:49.523Z,9.53
2019-03-17T10:26:59.685Z,9.56
2019-03-17T10:28:09.851Z,9.44
2019-03-17T10:29:20.011Z,9.53
2019-03-17T10:30:30.156Z,9.56
2019-03-17T10:31:40.035Z,9.65
2019-03-17T10:32:50.206Z,9.6
2019-03-17T10:34:00.464Z,9.62
2019-03-17T10:35:10.610Z,9.77
2019-03-17T10:36:21.729Z,9.77
2019-03-17T10:37:31.871Z,9.81
2019-03-17T10:38:42.056Z,9.83
2019-03-17T10:39:52.177Z,9.8
2019-03-17T10:41:02.431Z,9.84
2019-03-17T10:42:12.626Z,9.78
2019-03-17T10:43:22.773Z,9.78
2019-03-17T10:44:32.886Z,9.74
2019-03-17T10:45:43.064Z,9.71
2019-03-17T10:46:53.226Z,9.78
2019-03-17T10:48:03.425Z,9.84
2019-03-17T10:49:13.550Z,9.65
2019-03-17T10:50:23.691Z,9.63
2019-03-17T10:51:33.807Z,9.66
2019-03-17T10:52:43.966Z,9.67
2019-03-17T10:53:54.114Z,9.62
2019-03-17T10:55:04.270Z,9.73
2019-03-17T10:56:14.419Z,9.65
2019-03-17T10:57:24.579Z,9.75
2019-03-17T10:58:34.725Z,9.77
2019-03-17T10:59:44.862Z,9.8
2019-03-17T11:00:54.999Z,9.7
2019-03-17T11:02:05.175Z,9.65
2019-03-17T11:03:15.066Z,9.65
2019-03-17T11:04:25.190Z,9.63
2019-03-17T11:05:35.340Z,9.52
2019-03-17T11:06:45.506Z,9.55
2019-03-17T11:07:55.670Z,9.48
2019-03-17T11:09:05.819Z,9.47
2019-03-17T11:10:15.990Z,9.42
2019-03-17T11:11:26.161Z,9.33
2019-03-17T11:12:36.332Z,9.3
2019-03-17T11:13:46.471Z,9.37
2019-03-17T11:14:56.630Z,9.42
2019-03-17T11:16:06.783Z,9.47
2019-03-17T11:17:16.958Z,9.4
2019-03-17T11:18:27.078Z,9.5
2019-03-17T11:19:37.246Z,9.41
2019-03-17T11:20:47.144Z,9.41
2019-03-17T11:21:57.018Z,9.45
2019-03-17T11:23:07.168Z,9.37
2019-03-17T11:24:17.332Z,9.29
2019-03-17T11:25:27.473Z,8.92
2019-03-17T11:26:37.383Z,8.53
2019-03-17T11:27:47.558Z,8.39
2019-03-17T11:28:57.753Z,8.16
2019-03-17T11:30:08.394Z,7.9
2019-03-17T11:31:18.832Z,7.76
2019-03-17T11:32:29.009Z,7.67
2019-03-17T11:33:39.641Z,7.49
2019-03-17T11:34:49.815Z,7.49
2019-03-17T11:36:00.396Z,7.34
2019-03-17T11:37:10.754Z,7.31
2019-03-17T11:38:21.182Z,7.26
2019-03-17T11:39:42.590Z,7.29
2019-03-17T11:40:52.938Z,7.21
2019-03-17T11:42:03.300Z,7.26
2019-03-17T11:43:13.452Z,7.17
2019-03-17T11:44:23.650Z,7.2
2019-03-17T11:45:33.804Z,7.11
2019-03-17T11:46:44.175Z,7.03
2019-03-17T11:47:54.562Z,7
2019-03-17T11:49:04.754Z,6.97
2019-03-17T11:50:15.197Z,6.9
2019-03-17T11:51:25.375Z,6.93
2019-03-17T11:52:35.698Z,6.92
2019-03-17T11:53:46.049Z,6.92
2019-03-17T11:54:56.547Z,6.85
2019-03-17T11:56:06.661Z,6.87
2019-03-17T11:57:17.389Z,6.9
2019-03-17T11:58:27.720Z,6.9
2019-03-17T11:59:38.278Z,6.93
2019-03-17T12:00:48.774Z,6.85
2019-03-17T12:01:59.371Z,6.87
2019-03-17T12:03:09.707Z,6.87
2019-03-17T12:04:20.034Z,6.9
2019-03-17T12:05:30.300Z,6.92
2019-03-17T12:06:40.560Z,6.9
2019-03-17T12:07:50.912Z,6.92
2019-03-17T12:09:04.232Z,6.89
2019-03-17T12:10:14.734Z,6.95
2019-03-17T12:11:25.222Z,6.9
2019-03-17T12:12:35.442Z,7
2019-03-17T12:13:45.999Z,7.1
2019-03-17T12:14:56.448Z,7.02
2019-03-17T12:16:06.562Z,7.11
2019-03-17T12:17:17.332Z,7.17
2019-03-17T12:18:27.841Z,7.14
2019-03-17T12:19:38.111Z,7.22
2019-03-17T12:20:48.405Z,7.31
2019-03-17T12:22:11.562Z,7.39
2019-03-17T12:23:22.171Z,7.44
2019-03-17T12:24:32.397Z,7.44
2019-03-17T12:25:42.566Z,7.55
2019-03-17T12:26:53.045Z,7.59
2019-03-17T12:28:04.040Z,7.62
2019-03-17T12:29:14.761Z,7.73
2019-03-17T12:30:24.978Z,7.8
2019-03-17T12:31:35.412Z,7.79
2019-03-17T12:32:46.400Z,7.7
2019-03-17T12:33:57.498Z,7.8
2019-03-17T12:35:07.984Z,7.8
2019-03-17T12:36:21.610Z,7.8
2019-03-17T12:37:32.165Z,7.72
2019-03-17T12:38:42.340Z,7.72
2019-03-17T12:40:04.492Z,7.84
2019-03-17T12:41:15.160Z,7.85
2019-03-17T12:42:25.475Z,7.84
2019-03-17T12:43:36.022Z,7.84
2019-03-17T12:44:46.830Z,7.98
2019-03-17T12:45:57.402Z,7.92
2019-03-17T12:47:07.601Z,7.91
2019-03-17T12:48:17.782Z,7.91
2019-03-17T12:49:27.954Z,7.92
2019-03-17T12:50:38.182Z,7.97
2019-03-17T12:51:48.342Z,7.92
2019-03-17T12:52:58.578Z,7.99
2019-03-17T12:54:08.724Z,8.05
2019-03-17T12:55:18.952Z,8.1
2019-03-17T12:56:29.129Z,8.13
2019-03-17T12:57:39.299Z,8.15
2019-03-17T12:58:49.458Z,8.13
2019-03-17T12:59:59.643Z,8.07
2019-03-17T13:01:09.877Z,8.1
2019-03-17T13:02:20.040Z,8.12
2019-03-17T13:03:30.225Z,8.13
2019-03-17T13:04:39.749Z,8.13
2019-03-17T13:05:49.937Z,8.07
2019-03-17T13:07:00.100Z,7.99
2019-03-17T13:08:10.268Z,8.12
2019-03-17T13:09:20.444Z,8.05
2019-03-17T13:10:30.589Z,8.06
2019-03-17T13:11:40.757Z,8.05
2019-03-17T13:12:50.302Z,8.03
2019-03-17T13:14:00.462Z,8.03
2019-03-17T13:15:12.387Z,7.99
2019-03-17T13:16:22.572Z,8.07
2019-03-17T13:17:32.739Z,7.99
2019-03-17T13:18:42.964Z,8.05
2019-03-17T13:19:53.132Z,8.07
2019-03-17T13:21:03.300Z,7.99
2019-03-17T13:22:13.677Z,8.02
2019-03-17T13:23:24.177Z,7.99
2019-03-17T13:24:34.328Z,8.1
2019-03-17T13:25:44.477Z,8.16
2019-03-17T13:26:54.722Z,8.2
2019-03-17T13:28:04.914Z,8.17
2019-03-17T13:29:15.078Z,8.31
2019-03-17T13:30:25.244Z,8.31
2019-03-17T13:31:35.440Z,8.31
2019-03-17T13:32:45.684Z,8.28
2019-03-17T13:33:55.871Z,8.39
2019-03-17T13:35:06.024Z,8.4
2019-03-17T13:36:16.197Z,8.42
2019-03-17T13:37:26.380Z,8.35
2019-03-17T13:38:36.575Z,8.46
2019-03-17T13:39:46.761Z,8.42
2019-03-17T13:40:57.020Z,8.45
2019-03-17T13:42:06.950Z,8.55
2019-03-17T13:43:17.195Z,8.49
2019-03-17T13:44:27.404Z,8.49
2019-03-17T13:45:37.596Z,8.55
2019-03-17T13:46:47.825Z,8.5
2019-03-17T13:47:58.432Z,8.48
2019-03-17T13:49:08.596Z,8.42
2019-03-17T13:50:18.771Z,8.34
2019-03-17T13:51:28.954Z,8.31
2019-03-17T13:52:39.140Z,8.39
2019-03-17T13:53:49.438Z,8.42
2019-03-17T13:54:59.604Z,8.42
2019-03-17T13:56:09.776Z,8.42
2019-03-17T13:57:19.922Z,8.34
2019-03-17T13:58:30.146Z,8.39
2019-03-17T13:59:40.308Z,8.39
2019-03-17T14:00:50.513Z,8.37
2019-03-17T14:02:00.793Z,8.39
2019-03-17T14:03:10.970Z,8.4
2019-03-17T14:04:22.829Z,8.45
2019-03-17T14:05:33.010Z,8.55
2019-03-17T14:06:43.224Z,8.43
2019-03-17T14:07:53.396Z,8.46
2019-03-17T14:09:03.557Z,8.49
2019-03-17T14:10:18.477Z,8.55
2019-03-17T14:11:28.654Z,8.55
2019-03-17T14:12:38.799Z,8.53
2019-03-17T14:13:48.982Z,8.57
2019-03-17T14:14:59.156Z,8.53
2019-03-17T14:16:09.321Z,8.52
2019-03-17T14:17:21.205Z,8.5
2019-03-17T14:18:31.362Z,8.57
2019-03-17T14:19:41.368Z,8.53
2019-03-17T14:20:51.558Z,8.55
2019-03-17T14:22:01.737Z,8.55
2019-03-17T14:23:11.963Z,8.48
2019-03-17T14:24:22.143Z,8.63
2019-03-17T14:25:33.777Z,8.66
2019-03-17T14:26:44.017Z,8.46
2019-03-17T14:27:54.038Z,8.5
2019-03-17T14:29:04.199Z,8.6
2019-03-17T14:30:14.350Z,8.61
2019-03-17T14:31:24.579Z,8.57
2019-03-17T14:32:34.804Z,8.63
2019-03-17T14:33:44.757Z,8.55
2019-03-17T14:34:54.956Z,8.53
2019-03-17T14:36:05.136Z,8.57
2019-03-17T14:37:15.333Z,8.55
2019-03-17T14:38:25.534Z,8.6
2019-03-17T14:39:35.715Z,8.58
2019-03-17T14:40:59.783Z,8.55
2019-03-17T14:42:10.004Z,8.6
2019-03-17T14:43:20.186Z,8.61
2019-03-17T14:44:30.406Z,8.58
2019-03-17T14:45:40.561Z,8.61
2019-03-17T14:46:50.720Z,8.66
2019-03-17T14:48:00.950Z,8.6
2019-03-17T14:49:11.144Z,8.63
2019-03-17T14:50:21.524Z,8.68
2019-03-17T14:51:31.713Z,8.67
2019-03-17T14:52:41.866Z,8.68
2019-03-17T14:53:53.011Z,8.7
2019-03-17T14:55:03.208Z,8.63
2019-03-17T14:56:13.399Z,8.6
2019-03-17T14:57:23.589Z,8.58
2019-03-17T14:58:33.819Z,8.53
2019-03-17T14:59:44.001Z,8.58
2019-03-17T15:00:54.235Z,8.57
2019-03-17T15:02:04.072Z,8.57
2019-03-17T15:03:14.259Z,8.49
2019-03-17T15:04:24.411Z,8.57
2019-03-17T15:05:34.007Z,8.48
2019-03-17T15:06:44.253Z,8.45
2019-03-17T15:07:54.443Z,8.42
2019-03-17T15:09:04.662Z,8.37
2019-03-17T15:10:15.026Z,8.28
2019-03-17T15:11:27.358Z,8.3
2019-03-17T15:12:37.735Z,8.21
2019-03-17T15:13:47.939Z,8.16
2019-03-17T15:14:58.158Z,8.06
2019-03-17T15:16:08.365Z,7.92
2019-03-17T15:17:18.563Z,7.87
2019-03-17T15:18:29.375Z,7.85
2019-03-17T15:19:39.553Z,7.74
2019-03-17T15:20:49.735Z,7.64
2019-03-17T15:21:59.908Z,7.64
2019-03-17T15:23:10.147Z,7.67
2019-03-17T15:24:20.834Z,7.56
2019-03-17T15:25:32.377Z,7.61
2019-03-17T15:26:43.541Z,7.66
2019-03-17T15:27:53.463Z,7.67
2019-03-17T15:29:03.669Z,7.62
2019-03-17T15:30:13.878Z,7.64
2019-03-17T15:31:24.073Z,7.69
2019-03-17T15:32:33.985Z,7.67
2019-03-17T15:33:44.156Z,7.69
2019-03-17T15:34:54.338Z,7.73
2019-03-17T15:36:04.529Z,7.72
2019-03-17T15:37:14.690Z,7.73
2019-03-17T15:38:24.845Z,7.64
2019-03-17T15:39:35.482Z,7.69